createdAt,value
2023-03-12T00:02:15.180Z,99725.44
2023-03-12T00:04:42.209Z,99726.50
2023-03-12T00:07:09.324Z,99714.34
2023-03-12T00:09:37.948Z,99714.34
2023-03-12T00:12:05.928Z,99698.72
2023-03-12T00:14:32.966Z,99683.00
2023-03-12T00:16:59.995Z,99677.84
2023-03-12T00:19:27.107Z,99670.13
2023-03-12T00:21:54.102Z,99657.84
2023-03-12T00:24:21.282Z,99648.22
2023-03-12T00:26:48.389Z,99662.41
2023-03-12T00:29:15.312Z,99661.66
2023-03-12T00:31:42.248Z,99652.97
2023-03-12T00:34:12.064Z,99646.88
2023-03-12T00:36:40.966Z,99633.78
2023-03-12T00:39:08.133Z,99628.69
2023-03-12T00:41:35.257Z,99618.16
2023-03-12T00:44:02.549Z,99632.31
2023-03-12T00:46:29.880Z,99633.25
2023-03-12T00:48:56.724Z,99623.63
2023-03-12T00:51:23.591Z,99611.41
2023-03-12T00:53:50.592Z,99616.69
2023-03-12T00:56:17.473Z,99609.69
2023-03-12T00:58:44.505Z,99606.31
2023-03-12T01:01:11.536Z,99597.69
2023-03-12T01:03:38.908Z,99592.41
2023-03-12T01:06:06.957Z,99591.56
2023-03-12T01:08:33.905Z,99589.75
2023-03-12T01:11:00.987Z,99586.28
2023-03-12T01:13:28.299Z,99579.28
2023-03-12T01:15:55.263Z,99570.53
2023-03-12T01:18:22.358Z,99563.47
2023-03-12T01:20:49.845Z,99556.53
2023-03-12T01:23:16.895Z,99553.13
2023-03-12T01:25:43.753Z,99538.13
2023-03-12T01:28:10.762Z,99540.03
2023-03-12T01:30:37.650Z,99526.72
2023-03-12T01:33:04.728Z,99534.78
2023-03-12T01:35:35.569Z,99526.84
2023-03-12T01:38:02.424Z,99529.38
2023-03-12T01:40:29.564Z,99517.16
2023-03-12T01:42:58.511Z,99518.94
2023-03-12T01:45:59.471Z,99513.66
2023-03-12T01:48:29.487Z,99507.53
2023-03-12T01:50:56.429Z,99504.06
2023-03-12T01:53:23.753Z,99492.78
2023-03-12T01:55:51.418Z,99495.28
2023-03-12T01:58:19.045Z,99490.13
2023-03-12T02:00:46.270Z,99489.28
2023-03-12T02:03:14.117Z,99477.78
2023-03-12T02:05:51.294Z,99487.50
2023-03-12T02:08:18.941Z,99479.56
2023-03-12T02:10:46.867Z,99476.09
2023-03-12T02:13:14.207Z,99471.66
2023-03-12T02:15:41.147Z,99465.44
2023-03-12T02:18:11.811Z,99461.13
2023-03-12T02:20:56.541Z,99449.72
2023-03-12T02:23:52.449Z,99444.34
2023-03-12T02:26:21.974Z,99441.72
2023-03-12T02:28:50.577Z,99433.88
2023-03-12T02:31:24.234Z,99422.47
2023-03-12T02:33:53.282Z,99420.59
2023-03-12T02:36:20.857Z,99404.78
2023-03-12T02:38:53.082Z,99399.50
2023-03-12T02:41:32.056Z,99402.97
2023-03-12T02:44:05.624Z,99402.03
2023-03-12T02:46:45.746Z,99393.25
2023-03-12T02:49:14.201Z,99396.75
2023-03-12T02:51:42.996Z,99390.63
2023-03-12T02:54:11.215Z,99376.50
2023-03-12T02:56:38.449Z,99365.09
2023-03-12T02:59:06.908Z,99362.56
2023-03-12T03:01:37.009Z,99358.88
2023-03-12T03:04:05.507Z,99350.09
2023-03-12T03:06:32.804Z,99354.44
2023-03-12T03:09:00.140Z,99356.09
2023-03-12T03:11:27.221Z,99356.09
2023-03-12T03:13:55.130Z,99346.53
2023-03-12T03:16:22.738Z,99347.25
2023-03-12T03:18:49.614Z,99341.97
2023-03-12T03:21:18.173Z,99342.91
2023-03-12T03:23:47.475Z,99343.66
2023-03-12T03:26:15.951Z,99335.72
2023-03-12T03:31:08.993Z,99333.84
2023-03-12T03:33:37.805Z,99323.28
2023-03-12T03:36:06.765Z,99319.81
2023-03-12T03:38:35.075Z,99309.25
2023-03-12T03:41:02.411Z,99318.97
2023-03-12T03:43:29.303Z,99320.66
2023-03-12T03:46:01.486Z,99314.41
2023-03-12T03:48:28.484Z,99314.41
2023-03-12T03:50:55.642Z,99302.91
2023-03-12T03:53:22.522Z,99292.38
2023-03-12T03:55:49.331Z,99296.66
2023-03-12T03:58:16.656Z,99280.84
2023-03-12T04:00:47.304Z,99293.22
2023-03-12T04:03:14.302Z,99283.38
2023-03-12T04:05:45.455Z,99271.03
2023-03-12T04:08:12.770Z,99264.56
2023-03-12T04:10:40.554Z,99268.19
2023-03-12T04:13:07.666Z,99273.56
2023-03-12T04:15:34.739Z,99277.97
2023-03-12T04:18:01.612Z,99271.75
2023-03-12T04:20:28.520Z,99255.09
2023-03-12T04:22:55.367Z,99256.78
2023-03-12T04:25:22.193Z,99259.41
2023-03-12T04:27:49.038Z,99250.66
2023-03-12T04:30:15.922Z,99247.06
2023-03-12T04:32:42.822Z,99245.25
2023-03-12T04:35:09.801Z,99246.09
2023-03-12T04:37:36.643Z,99239.03
2023-03-12T04:40:07.700Z,99245.16
2023-03-12T04:42:35.807Z,99238.81
2023-03-12T04:45:06.754Z,99230.03
2023-03-12T04:47:34.233Z,99220.22
2023-03-12T04:50:01.472Z,99223.81
2023-03-12T04:52:28.587Z,99210.63
2023-03-12T04:54:56.380Z,99214.94
2023-03-12T04:57:23.206Z,99218.31
2023-03-12T04:59:49.994Z,99213.03
2023-03-12T05:02:16.827Z,99212.19
2023-03-12T05:04:43.748Z,99211.22
2023-03-12T05:07:10.685Z,99218.31
2023-03-12T05:09:37.566Z,99220.97
2023-03-12T05:12:04.640Z,99216.41
2023-03-12T05:14:31.442Z,99221.69
2023-03-12T05:16:58.237Z,99223.59
2023-03-12T05:19:25.069Z,99224.41
2023-03-12T05:21:52.229Z,99213.03
2023-03-12T05:24:19.464Z,99213.03
2023-03-12T05:26:46.379Z,99213.03
2023-03-12T05:29:13.307Z,99204.28
2023-03-12T05:31:40.251Z,99207.63
2023-03-12T05:34:07.295Z,99205.84
2023-03-12T05:36:34.661Z,99205.84
2023-03-12T05:39:01.609Z,99198.03
2023-03-12T05:41:29.968Z,99204.16
2023-03-12T05:43:57.953Z,99196.13
2023-03-12T05:46:26.129Z,99203.94
2023-03-12T05:48:53.875Z,99193.50
2023-03-12T05:51:21.396Z,99196.84
2023-03-12T05:53:48.275Z,99190.59
2023-03-12T05:56:17.492Z,99191.44
2023-03-12T05:58:45.095Z,99200.94
2023-03-12T06:01:21.026Z,99198.44
2023-03-12T06:03:48.006Z,99208.03
2023-03-12T06:06:15.055Z,99195.78
2023-03-12T06:08:42.911Z,99198.28
2023-03-12T06:11:10.350Z,99192.94
2023-03-12T06:13:37.508Z,99191.84
2023-03-12T06:16:15.744Z,99193.06
2023-03-12T06:18:42.661Z,99187.09
2023-03-12T06:21:09.481Z,99170.91
2023-03-12T06:23:36.419Z,99181.94
2023-03-12T06:26:03.479Z,99189.41
2023-03-12T06:28:30.690Z,99171.53
2023-03-12T06:30:57.580Z,99171.41
2023-03-12T06:33:24.510Z,99164.09
2023-03-12T06:35:58.060Z,99155.69
2023-03-12T06:38:26.052Z,99165.19
2023-03-12T06:40:57.410Z,99167.44
2023-03-12T06:43:25.900Z,99154.84
2023-03-12T06:45:55.019Z,99144.78
2023-03-12T06:48:22.905Z,99145.25
2023-03-12T06:50:50.216Z,99139.59
2023-03-12T06:53:17.166Z,99136.00
2023-03-12T06:55:45.344Z,99132.28
2023-03-12T06:58:12.442Z,99136.34
2023-03-12T07:00:39.679Z,99137.81
2023-03-12T07:03:06.906Z,99138.03
2023-03-12T07:05:33.749Z,99129.63
2023-03-12T07:08:00.633Z,99131.56
2023-03-12T07:10:30.218Z,99125.06
2023-03-12T07:12:57.639Z,99116.81
2023-03-12T07:15:24.755Z,99117.50
2023-03-12T07:17:51.901Z,99108.50
2023-03-12T07:20:18.985Z,99111.16
2023-03-12T07:22:45.934Z,99103.84
2023-03-12T07:25:12.906Z,99100.44
2023-03-12T07:27:39.803Z,99103.94
2023-03-12T07:30:07.340Z,99108.97
2023-03-12T07:32:35.684Z,99096.13
2023-03-12T07:35:04.171Z,99100.34
2023-03-12T07:37:31.402Z,99096.38
2023-03-12T07:39:58.475Z,99103.47
2023-03-12T07:42:25.727Z,99107.03
2023-03-12T07:44:52.875Z,99095.16
2023-03-12T07:47:23.933Z,99102.72
2023-03-12T07:49:51.485Z,99099.72
2023-03-12T07:52:20.528Z,99105.63
2023-03-12T07:54:47.968Z,99093.84
2023-03-12T07:57:15.146Z,99083.75
2023-03-12T07:59:42.173Z,99075.44
2023-03-12T08:02:10.998Z,99086.38
2023-03-12T08:04:38.034Z,99076.00
2023-03-12T08:07:08.004Z,99070.94
2023-03-12T08:09:36.148Z,99073.81
2023-03-12T08:12:03.153Z,99074.97
2023-03-12T08:14:32.020Z,99081.31
2023-03-12T08:17:00.287Z,99074.28
2023-03-12T08:19:27.958Z,99072.69
2023-03-12T08:21:55.146Z,99071.78
2023-03-12T08:24:22.631Z,99077.56
2023-03-12T08:26:49.842Z,99066.84
2023-03-12T08:29:17.831Z,99060.63
2023-03-12T08:32:01.473Z,99052.72
2023-03-12T08:34:30.710Z,99049.13
2023-03-12T08:36:57.699Z,99038.59
2023-03-12T08:39:24.565Z,99042.22
2023-03-12T08:41:55.630Z,99043.13
2023-03-12T08:44:26.043Z,99043.25
2023-03-12T08:46:53.502Z,99052.22
2023-03-12T08:49:21.654Z,99052.53
2023-03-12T08:51:49.277Z,99051.13
2023-03-12T08:54:16.333Z,99048.75
2023-03-12T08:56:44.108Z,99053.78
2023-03-12T08:59:12.010Z,99065.66
2023-03-12T09:01:43.695Z,99060.25
2023-03-12T09:04:11.635Z,99070.84
2023-03-12T09:06:38.836Z,99058.13
2023-03-12T09:09:06.135Z,99055.75
2023-03-12T09:11:34.144Z,99047.09
2023-03-12T09:14:39.522Z,99042.63
2023-03-12T09:16:49.779Z,99039.84
2023-03-12T09:19:17.583Z,99025.31
2023-03-12T09:21:44.854Z,99036.94
2023-03-12T09:24:12.209Z,99043.69
2023-03-12T09:26:39.342Z,99043.94
2023-03-12T09:29:06.417Z,99043.13
2023-03-12T09:31:34.928Z,99039.88
2023-03-12T09:34:02.330Z,99036.97
2023-03-12T09:36:29.562Z,99039.22
2023-03-12T09:38:56.640Z,99040.16
2023-03-12T09:41:30.506Z,99039.31
2023-03-12T09:44:02.604Z,99046.59
2023-03-12T09:47:02.597Z,99047.41
2023-03-12T09:49:42.288Z,99053.28
2023-03-12T09:52:39.959Z,99051.03
2023-03-12T09:55:20.308Z,99051.16
2023-03-12T09:57:51.054Z,99054.09
2023-03-12T10:00:22.322Z,99054.88
2023-03-12T10:03:07.949Z,99052.97
2023-03-12T10:05:43.557Z,99060.50
2023-03-12T10:08:24.392Z,99058.41
2023-03-12T10:11:24.061Z,99069.72
2023-03-12T10:13:57.190Z,99054.63
2023-03-12T10:16:47.920Z,99058.38
2023-03-12T10:19:50.793Z,99048.41
2023-03-12T10:22:33.355Z,99046.44
2023-03-12T10:25:30.666Z,99052.84
2023-03-12T10:28:20.120Z,99054.91
2023-03-12T10:30:54.761Z,99058.41
2023-03-12T10:33:26.506Z,99052.81
2023-03-12T10:35:55.046Z,99056.16
2023-03-12T10:38:30.332Z,99051.69
2023-03-12T10:40:57.228Z,99048.03
2023-03-12T10:43:24.539Z,99051.53
2023-03-12T10:46:30.439Z,99057.09
2023-03-12T10:49:37.767Z,99059.06
2023-03-12T10:52:22.093Z,99061.19
2023-03-12T10:54:51.829Z,99061.47
2023-03-12T10:57:21.226Z,99065.25
2023-03-12T10:59:49.106Z,99061.06
2023-03-12T11:02:43.569Z,99055.59
2023-03-12T11:05:23.986Z,99047.22
2023-03-12T11:07:51.967Z,99037.19
2023-03-12T11:10:25.550Z,99023.50
2023-03-12T11:13:00.026Z,99039.44
2023-03-12T11:15:57.242Z,99039.72
2023-03-12T11:18:26.676Z,99042.53
2023-03-12T11:21:12.445Z,99055.09
2023-03-12T11:24:32.333Z,99040.19
2023-03-12T11:27:21.402Z,99036.38
2023-03-12T11:29:51.139Z,99037.69
2023-03-12T11:32:28.992Z,99045.66
2023-03-12T11:34:56.919Z,99054.88
2023-03-12T11:37:30.118Z,99067.75
2023-03-12T11:40:21.769Z,99064.97
2023-03-12T11:42:51.483Z,99073.78
2023-03-12T11:45:42.847Z,99061.94
2023-03-12T11:48:28.268Z,99047.53
2023-03-12T11:51:04.082Z,99049.19
2023-03-12T11:53:48.999Z,99050.31
2023-03-12T11:56:19.048Z,99051.03
2023-03-12T11:59:34.384Z,99048.38
2023-03-12T12:02:38.352Z,99045.28
2023-03-12T12:05:29.642Z,99033.66
2023-03-12T12:07:56.426Z,99033.34
2023-03-12T12:10:36.147Z,99028.34
2023-03-12T12:13:08.589Z,99025.00
2023-03-12T12:15:55.397Z,99027.34
2023-03-12T12:18:39.315Z,99016.53
2023-03-12T12:21:15.286Z,99011.34
2023-03-12T12:23:42.272Z,99011.63
2023-03-12T12:26:41.554Z,99009.16
2023-03-12T12:29:31.678Z,98998.72
2023-03-12T12:32:01.925Z,99010.59
2023-03-12T12:34:41.030Z,99003.63
2023-03-12T12:37:20.118Z,98988.81
2023-03-12T12:39:54.995Z,98999.16
2023-03-12T12:42:28.312Z,98985.72
2023-03-12T12:44:59.190Z,98978.72
2023-03-12T12:47:40.957Z,98977.63
2023-03-12T12:50:18.892Z,98958.84
2023-03-12T12:52:52.799Z,98964.16
2023-03-12T12:55:35.539Z,98963.03
2023-03-12T12:58:45.685Z,98963.56
2023-03-12T13:01:15.433Z,98945.66
2023-03-12T13:03:43.820Z,98949.25
2023-03-12T13:06:11.725Z,98951.97
2023-03-12T13:08:44.214Z,98957.53
2023-03-12T13:11:20.473Z,98940.97
2023-03-12T13:14:04.080Z,98937.47
2023-03-12T13:16:38.158Z,98934.22
2023-03-12T13:19:14.479Z,98935.06
2023-03-12T13:21:59.854Z,98928.28
2023-03-12T13:24:30.978Z,98921.00
2023-03-12T13:27:03.605Z,98898.25
2023-03-12T13:29:31.610Z,98894.38
2023-03-12T13:32:00.119Z,98888.16
2023-03-12T13:34:28.280Z,98889.47
2023-03-12T13:37:02.238Z,98896.97
2023-03-12T13:39:29.303Z,98889.56
2023-03-12T13:41:57.900Z,98885.38
2023-03-12T13:44:40.656Z,98876.06
2023-03-12T13:47:30.859Z,98875.94
2023-03-12T13:50:04.132Z,98881.09
2023-03-12T13:52:34.537Z,98876.59
2023-03-12T13:55:03.345Z,98875.47
2023-03-12T13:57:30.710Z,98896.91
2023-03-12T13:59:58.873Z,98867.47
2023-03-12T14:02:33.284Z,98883.28
2023-03-12T14:05:10.880Z,98882.16
2023-03-12T14:07:46.263Z,98891.66
2023-03-12T14:10:31.545Z,98895.81
2023-03-12T14:13:04.446Z,98893.00
2023-03-12T14:15:43.511Z,98877.88
2023-03-12T14:18:23.448Z,98879.88
2023-03-12T14:20:56.655Z,98868.69
2023-03-12T14:23:28.927Z,98866.81
2023-03-12T14:26:03.552Z,98867.72
2023-03-12T14:28:34.234Z,98859.66
2023-03-12T14:31:15.251Z,98856.25
2023-03-12T14:34:02.787Z,98851.63
2023-03-12T14:36:56.698Z,98869.41
2023-03-12T14:39:52.101Z,98874.41
2023-03-12T14:42:26.277Z,98869.94
2023-03-12T14:45:02.960Z,98865.59
2023-03-12T14:47:29.993Z,98851.53
2023-03-12T14:49:58.350Z,98851.16
2023-03-12T14:52:29.857Z,98841.06
2023-03-12T14:55:08.365Z,98840.66
2023-03-12T14:57:35.478Z,98835.25
2023-03-12T15:00:02.954Z,98838.31
2023-03-12T15:02:32.223Z,98835.81
2023-03-12T15:05:02.263Z,98831.41
2023-03-12T15:07:39.813Z,98827.34
2023-03-12T15:10:17.193Z,98828.38
2023-03-12T15:12:46.358Z,98825.00
2023-03-12T15:15:33.316Z,98832.06
2023-03-12T15:18:00.312Z,98817.75
2023-03-12T15:20:28.414Z,98822.34
2023-03-12T15:22:56.129Z,98811.41
2023-03-12T15:25:32.337Z,98803.25
2023-03-12T15:28:05.161Z,98799.28
2023-03-12T15:30:35.279Z,98796.47
2023-03-12T15:33:06.770Z,98797.00
2023-03-12T15:35:33.933Z,98788.03
2023-03-12T15:38:02.542Z,98773.56
2023-03-12T15:40:31.149Z,98778.22
2023-03-12T15:43:03.522Z,98769.75
2023-03-12T15:45:30.410Z,98778.56
2023-03-12T15:47:57.820Z,98758.59
2023-03-12T15:50:34.271Z,98760.69
2023-03-12T15:53:26.113Z,98759.66
2023-03-12T15:56:21.138Z,98756.31
2023-03-12T15:58:58.944Z,98746.72
2023-03-12T16:01:28.382Z,98742.88
2023-03-12T16:03:55.999Z,98753.19
2023-03-12T16:06:26.494Z,98748.19
2023-03-12T16:09:04.210Z,98745.94
2023-03-12T16:11:34.044Z,98737.81
2023-03-12T16:14:20.633Z,98733.66
2023-03-12T16:16:48.143Z,98728.72
2023-03-12T16:19:17.677Z,98722.25
2023-03-12T16:21:45.184Z,98717.28
2023-03-12T16:24:12.270Z,98721.31
2023-03-12T16:26:45.571Z,98716.00
2023-03-12T16:29:16.362Z,98716.81
2023-03-12T16:31:43.590Z,98711.84
2023-03-12T16:34:12.462Z,98698.91
2023-03-12T16:36:39.715Z,98690.88
2023-03-12T16:39:06.778Z,98689.06
2023-03-12T16:41:33.889Z,98683.66
2023-03-12T16:44:01.599Z,98682.03
2023-03-12T16:46:32.417Z,98672.72
2023-03-12T16:48:59.712Z,98667.28
2023-03-12T16:51:28.665Z,98666.91
2023-03-12T16:54:08.435Z,98654.81
2023-03-12T16:56:41.436Z,98659.72
2023-03-12T16:59:17.397Z,98660.69
2023-03-12T17:01:44.442Z,98656.19
2023-03-12T17:04:12.097Z,98659.31
2023-03-12T17:06:40.765Z,98653.63
2023-03-12T17:09:09.084Z,98652.00
2023-03-12T17:11:38.245Z,98642.22
2023-03-12T17:14:18.666Z,98642.69
2023-03-12T17:16:45.656Z,98641.28
2023-03-12T17:19:12.638Z,98634.56
2023-03-12T17:21:40.326Z,98626.84
2023-03-12T17:24:07.789Z,98623.47
2023-03-12T17:26:34.810Z,98623.94
2023-03-12T17:29:01.784Z,98614.81
2023-03-12T17:31:28.817Z,98611.53
2023-03-12T17:33:55.932Z,98608.56
2023-03-12T17:36:23.318Z,98605.59
2023-03-12T17:38:51.051Z,98600.44
2023-03-12T17:41:26.547Z,98601.22
2023-03-12T17:43:55.250Z,98595.53
2023-03-12T17:46:22.346Z,98579.94
2023-03-12T17:48:49.299Z,98589.72
2023-03-12T17:51:16.363Z,98579.94
2023-03-12T17:53:43.333Z,98586.13
2023-03-12T17:56:12.816Z,98578.94
2023-03-12T17:58:40.120Z,98583.31
2023-03-12T18:01:07.771Z,98583.00
2023-03-12T18:03:34.735Z,98574.88
2023-03-12T18:06:02.519Z,98567.75
2023-03-12T18:08:29.661Z,98568.47
2023-03-12T18:10:56.712Z,98557.38
2023-03-12T18:13:23.689Z,98551.94
2023-03-12T18:15:53.511Z,98555.78
2023-03-12T18:18:21.446Z,98556.16
2023-03-12T18:20:49.648Z,98541.03
2023-03-12T18:23:17.247Z,98530.91
2023-03-12T18:25:44.933Z,98530.41
2023-03-12T18:28:12.612Z,98526.78
2023-03-12T18:30:39.590Z,98522.31
2023-03-12T18:33:06.666Z,98523.16
2023-03-12T18:35:33.729Z,98514.47
2023-03-12T18:38:00.998Z,98519.28
2023-03-12T18:40:29.805Z,98511.63
2023-03-12T18:43:03.777Z,98501.16
2023-03-12T18:45:31.384Z,98502.00
2023-03-12T18:47:58.323Z,98493.50
2023-03-12T18:50:25.620Z,98497.34
2023-03-12T18:52:52.615Z,98489.72
2023-03-12T18:55:19.640Z,98490.06
2023-03-12T18:57:48.034Z,98479.59
2023-03-12T19:00:19.947Z,98479.75
2023-03-12T19:02:48.456Z,98481.09
2023-03-12T19:05:16.358Z,98479.09
2023-03-12T19:07:43.609Z,98476.63
2023-03-12T19:10:11.625Z,98468.63
2023-03-12T19:12:50.864Z,98476.44
2023-03-12T19:15:19.701Z,98468.00
2023-03-12T19:17:46.564Z,98466.84
2023-03-12T19:20:14.384Z,98469.03
2023-03-12T19:22:41.643Z,98466.88
2023-03-12T19:25:09.089Z,98455.78
2023-03-12T19:27:36.190Z,98448.81
2023-03-12T19:30:03.395Z,98453.31
2023-03-12T19:32:42.228Z,98452.16
2023-03-12T19:35:12.367Z,98441.53
2023-03-12T19:37:39.713Z,98443.72
2023-03-12T19:40:07.805Z,98432.44
2023-03-12T19:42:36.665Z,98428.44
2023-03-12T19:45:04.192Z,98416.47
2023-03-12T19:47:33.453Z,98424.28
2023-03-12T19:50:01.033Z,98416.97
2023-03-12T19:52:28.298Z,98411.84
2023-03-12T19:55:04.366Z,98412.19
2023-03-12T19:57:33.467Z,98407.53
2023-03-12T20:00:00.504Z,98405.22
2023-03-12T20:02:27.876Z,98402.53
2023-03-12T20:04:55.934Z,98396.91
2023-03-12T20:07:23.236Z,98392.41
2023-03-12T20:09:50.697Z,98383.78
2023-03-12T20:12:18.168Z,98379.28
2023-03-12T20:14:45.611Z,98367.81
2023-03-12T20:17:13.783Z,98366.97
2023-03-12T20:19:56.502Z,98356.16
2023-03-12T20:22:26.063Z,98357.31
2023-03-12T20:24:54.489Z,98351.69
2023-03-12T20:27:21.820Z,98351.69
2023-03-12T20:29:51.942Z,98337.19
2023-03-12T20:32:19.841Z,98337.19
2023-03-12T20:34:47.156Z,98335.22
2023-03-12T20:37:14.832Z,98331.03
2023-03-12T20:39:41.937Z,98336.34
2023-03-12T20:42:09.178Z,98327.91
2023-03-12T20:44:36.492Z,98325.56
2023-03-12T20:47:03.517Z,98317.91
2023-03-12T20:49:30.620Z,98313.09
2023-03-12T20:51:59.396Z,98303.63
2023-03-12T20:54:27.764Z,98293.66
2023-03-12T20:56:54.832Z,98292.50
2023-03-12T20:59:22.036Z,98293.00
2023-03-12T21:01:49.086Z,98285.88
2023-03-12T21:05:02.589Z,98278.88
2023-03-12T21:07:30.130Z,98282.19
2023-03-12T21:09:57.399Z,98271.22
2023-03-12T21:12:44.897Z,98270.72
2023-03-12T21:15:24.297Z,98267.59
2023-03-12T21:17:52.754Z,98269.91
2023-03-12T21:20:20.559Z,98259.59
2023-03-12T21:22:48.106Z,98270.25
2023-03-12T21:25:15.723Z,98263.59
2023-03-12T21:27:50.480Z,98255.78
2023-03-12T21:30:19.092Z,98253.97
2023-03-12T21:32:46.621Z,98255.78
2023-03-12T21:35:14.704Z,98246.00
2023-03-12T21:37:41.789Z,98248.16
2023-03-12T21:40:09.835Z,98242.50
2023-03-12T21:42:38.274Z,98237.19
2023-03-12T21:45:06.776Z,98227.72
2023-03-12T21:47:37.227Z,98229.38
2023-03-12T21:50:05.227Z,98224.22
2023-03-12T21:52:34.793Z,98211.13
2023-03-12T21:55:28.037Z,98217.59
2023-03-12T21:58:00.828Z,98197.84
2023-03-12T22:00:28.879Z,98194.81
2023-03-12T22:02:58.332Z,98191.03
2023-03-12T22:05:25.881Z,98183.72
2023-03-12T22:07:53.103Z,98172.91
2023-03-12T22:10:20.080Z,98164.94
2023-03-12T22:12:47.159Z,98164.09
2023-03-12T22:15:14.356Z,98162.63
2023-03-12T22:17:41.574Z,98158.28
2023-03-12T22:20:09.508Z,98150.63
2023-03-12T22:22:36.874Z,98148.13
2023-03-12T22:25:04.135Z,98141.97
2023-03-12T22:27:31.675Z,98136.66
2023-03-12T22:29:58.856Z,98133.81
2023-03-12T22:32:26.080Z,98129.19
2023-03-12T22:34:53.496Z,98133.44
2023-03-12T22:37:21.502Z,98133.09
2023-03-12T22:39:48.538Z,98118.84
2023-03-12T22:42:15.473Z,98107.91
2023-03-12T22:44:42.750Z,98098.75
2023-03-12T22:47:09.998Z,98093.09
2023-03-12T22:49:37.077Z,98082.13
2023-03-12T22:52:04.268Z,98068.34
2023-03-12T22:54:31.264Z,98078.63
2023-03-12T22:56:58.393Z,98067.66
2023-03-12T22:59:25.341Z,98051.41
2023-03-12T23:01:53.025Z,98048.25
2023-03-12T23:04:21.508Z,98041.59
2023-03-12T23:06:48.613Z,98033.16
2023-03-12T23:09:15.689Z,98029.97
2023-03-12T23:11:42.547Z,98018.88
2023-03-12T23:14:09.613Z,98011.41
2023-03-12T23:16:36.662Z,97991.53
2023-03-12T23:19:03.622Z,97983.06
2023-03-12T23:21:32.986Z,97976.28
2023-03-12T23:24:00.419Z,97972.28
2023-03-12T23:26:29.503Z,97958.38
2023-03-12T23:28:59.325Z,97964.81
2023-03-12T23:31:30.482Z,97948.41
2023-03-12T23:33:58.790Z,97949.09
2023-03-12T23:36:26.208Z,97939.13
2023-03-12T23:38:53.171Z,97936.97
2023-03-12T23:41:26.069Z,97918.75
2023-03-12T23:43:53.685Z,97915.44
2023-03-12T23:46:21.469Z,97911.31
2023-03-12T23:48:48.871Z,97907.97
2023-03-12T23:51:24.840Z,97889.75
2023-03-12T23:53:55.501Z,97884.78
2023-03-12T23:56:24.976Z,97876.03
2023-03-12T23:58:52.190Z,97871.19
